Time;durP1;ratioP1;P1;durP2;ratioP2;P2;SDS_P1;SDS_P2;PMS_P1;PMS_P2;Temp;Humidity;BMP_temperature;BMP_pressure;BME280_temperature;BME280_humidity;BME280_pressure;Samples;Min_cycle;Max_cycle;Signal;HPM_P1;HPM_P2
2023/10/25 00:04:14;;;;;;;32.80;24.20;;;;;;;11.93;100.00;99289.02;4925580;57;1142921;-71
2023/10/25 00:09:20;;;;;;;30.20;24.57;;;;;;;11.90;100.00;99281.42;4791740;59;1143203;-72
2023/10/25 00:14:25;;;;;;;34.57;25.13;;;;;;;11.91;100.00;99279.59;4931664;58;1142975;-75
2023/10/25 00:19:31;;;;;;;29.87;24.13;;;;;;;11.92;100.00;99278.09;4743891;60;1143175;-73
2023/10/25 00:24:36;;;;;;;34.37;25.00;;;;;;;11.95;100.00;99275.63;4732032;60;1142867;-72
2023/10/25 00:29:42;;;;;;;28.40;21.10;;;;;;;11.97;100.00;99263.88;4679709;60;1142939;-70
2023/10/25 00:34:48;;;;;;;35.07;23.73;;;;;;;11.96;100.00;99260.06;4767941;60;1142924;-74
2023/10/25 00:39:56;;;;;;;25.17;20.67;;;;;;;11.91;100.00;99262.37;4790585;60;1143135;-74
2023/10/25 00:45:01;;;;;;;32.67;23.57;;;;;;;11.89;100.00;99251.11;4787317;59;1143479;-75
2023/10/25 00:50:09;;;;;;;28.05;22.35;;;;;;;11.83;100.00;99255.70;4930163;57;1143232;-72
2023/10/25 00:55:14;;;;;;;32.30;22.30;;;;;;;11.77;100.00;99251.02;4979895;57;1142992;-74
2023/10/25 01:00:20;;;;;;;32.03;22.67;;;;;;;11.73;100.00;99244.36;4924427;57;1143155;-73
2023/10/25 01:05:26;;;;;;;32.47;23.53;;;;;;;11.71;100.00;99228.63;4924096;58;1143039;-73
2023/10/25 01:10:32;;;;;;;31.07;23.77;;;;;;;11.68;100.00;99229.42;4911372;58;1143336;-70
2023/10/25 01:15:38;;;;;;;28.47;23.00;;;;;;;11.68;100.00;99228.11;4875455;58;1143015;-72
2023/10/25 01:20:44;;;;;;;35.47;24.77;;;;;;;11.67;100.00;99221.14;4843793;59;1142853;-73
2023/10/25 01:25:51;;;;;;;37.80;25.37;;;;;;;11.63;100.00;99222.78;4981745;57;1142938;-73
2023/10/25 01:30:57;;;;;;;37.97;27.07;;;;;;;11.63;100.00;99219.30;4981675;57;1142921;-72
2023/10/25 01:36:02;;;;;;;40.00;27.87;;;;;;;11.66;100.00;99222.96;4922737;57;1143058;-73
2023/10/25 01:41:13;;;;;;;37.08;26.85;;;;;;;11.63;100.00;99224.59;4811011;59;1143099;-73
2023/10/25 01:46:15;;;;;;;39.30;28.17;;;;;;;11.64;100.00;99224.93;4915466;57;1143670;-74
2023/10/25 01:51:21;;;;;;;38.13;26.40;;;;;;;11.68;100.00;99220.98;4866632;58;1142952;-70
2023/10/25 01:56:26;;;;;;;37.03;25.60;;;;;;;11.73;100.00;99217.88;4824520;59;1143200;-72
2023/10/25 02:01:32;;;;;;;34.70;24.47;;;;;;;11.81;100.00;99224.06;4916191;57;1143295;-70
2023/10/25 02:06:37;;;;;;;29.07;22.63;;;;;;;11.87;100.00;99216.82;4904130;57;1142995;-73
2023/10/25 02:11:43;;;;;;;27.87;21.50;;;;;;;11.89;100.00;99220.14;4873587;58;1143122;-72
2023/10/25 02:16:49;;;;;;;33.17;22.57;;;;;;;11.92;100.00;99211.85;4790727;59;1142969;-72
2023/10/25 02:21:55;;;;;;;25.47;18.83;;;;;;;11.91;100.00;99203.59;4909925;57;1143106;-74
2023/10/25 02:27:02;;;;;;;28.98;19.52;;;;;;;11.91;100.00;99200.12;4722278;59;1143533;-72
2023/10/25 02:32:09;;;;;;;35.23;20.50;;;;;;;11.90;100.00;99197.96;4925245;58;1143365;-71
2023/10/25 02:37:17;;;;;;;29.87;20.93;;;;;;;11.92;100.00;99209.20;4793730;59;1143019;-72
2023/10/25 02:42:23;;;;;;;26.33;19.60;;;;;;;11.90;100.00;99203.75;4790838;59;1142869;-74
2023/10/25 02:47:28;;;;;;;27.30;19.80;;;;;;;11.81;100.00;99192.27;4925807;58;1142943;-71
2023/10/25 02:52:34;;;;;;;26.33;19.47;;;;;;;11.72;100.00;99180.45;4914096;57;1142882;-72
2023/10/25 02:57:39;;;;;;;28.23;19.57;;;;;;;11.62;100.00;99170.80;4790034;59;1142917;-73
2023/10/25 03:02:45;;;;;;;23.60;17.43;;;;;;;11.57;100.00;99175.77;4927705;58;1143081;-72
2023/10/25 03:07:51;;;;;;;22.53;17.13;;;;;;;11.58;100.00;99181.89;4884877;58;1143300;-71
2023/10/25 03:12:56;;;;;;;24.00;17.20;;;;;;;11.56;100.00;99183.36;4973075;57;1143382;-72
2023/10/25 03:18:03;;;;;;;23.25;18.27;;;;;;;11.59;100.00;99185.70;4905199;58;1143251;-72
2023/10/25 03:23:09;;;;;;;23.00;16.90;;;;;;;11.64;100.00;99188.69;4927660;57;1143013;-74
2023/10/25 03:28:15;;;;;;;22.40;17.17;;;;;;;11.70;100.00;99185.91;4904299;58;1165019;-73
2023/10/25 03:33:20;;;;;;;23.30;16.60;;;;;;;11.71;100.00;99187.58;4804727;59;1143049;-71
2023/10/25 03:38:26;;;;;;;26.00;14.57;;;;;;;11.77;100.00;99194.90;4920798;58;1142895;-74
2023/10/25 03:43:33;;;;;;;23.40;16.03;;;;;;;11.81;100.00;99193.59;4864566;58;1142616;-75
2023/10/25 03:48:40;;;;;;;16.50;13.70;;;;;;;11.78;100.00;99181.99;4811008;59;1142931;-73
2023/10/25 03:53:46;;;;;;;19.23;13.83;;;;;;;11.73;100.00;99177.66;4928312;58;1143262;-74
2023/10/25 03:58:52;;;;;;;19.00;15.00;;;;;;;11.66;100.00;99180.59;4905510;58;1143788;-73
2023/10/25 04:03:58;;;;;;;17.20;13.80;;;;;;;11.61;100.00;99181.55;4852090;58;1143121;-71
2023/10/25 04:09:04;;;;;;;19.50;14.68;;;;;;;11.57;100.00;99175.77;4819984;59;1142938;-75
2023/10/25 04:14:09;;;;;;;14.85;12.98;;;;;;;11.57;100.00;99176.25;4887636;58;1142995;-71
2023/10/25 04:19:15;;;;;;;19.65;13.08;;;;;;;11.58;100.00;99176.09;4790489;60;1143010;-72
2023/10/25 04:24:21;;;;;;;19.57;13.07;;;;;;;11.60;100.00;99171.97;4790041;60;1143254;-71
2023/10/25 04:29:26;;;;;;;15.20;12.40;;;;;;;11.62;100.00;99178.74;4809404;59;1143330;-72
2023/10/25 04:34:32;;;;;;;14.13;11.83;;;;;;;11.64;100.00;99177.27;4906755;58;1142903;-72
2023/10/25 04:39:38;;;;;;;14.90;12.07;;;;;;;11.67;100.00;99172.98;4793001;59;1142833;-75
2023/10/25 04:44:43;;;;;;;15.47;11.83;;;;;;;11.69;100.00;99175.47;4932150;57;1142952;-72
2023/10/25 04:49:49;;;;;;;17.83;13.70;;;;;;;11.64;100.00;99170.15;4791538;59;1143058;-72
2023/10/25 04:54:55;;;;;;;17.87;13.40;;;;;;;11.61;100.00;99174.92;4914277;58;1143021;-73
2023/10/25 05:00:01;;;;;;;15.67;12.60;;;;;;;11.56;100.00;99174.09;4856226;58;1143042;-72
2023/10/25 05:05:08;;;;;;;13.38;10.93;;;;;;;11.54;100.00;99184.02;4822484;58;1143040;-71
2023/10/25 05:10:14;;;;;;;13.20;10.90;;;;;;;11.52;100.00;99181.18;4823998;58;1143065;-73
2023/10/25 05:15:21;;;;;;;14.75;11.20;;;;;;;11.51;100.00;99180.34;4794725;60;1143071;-76
2023/10/25 05:20:26;;;;;;;15.53;12.93;;;;;;;11.51;100.00;99189.62;4791160;60;1142928;-75
2023/10/25 05:25:33;;;;;;;13.47;10.87;;;;;;;11.48;100.00;99191.25;4789970;60;1142835;-74
2023/10/25 05:30:39;;;;;;;20.60;11.97;;;;;;;11.49;100.00;99196.05;4798955;60;1142718;-75
2023/10/25 05:35:44;;;;;;;12.57;10.80;;;;;;;11.50;100.00;99206.48;4793790;59;1142977;-71
2023/10/25 05:40:53;;;;;;;19.87;13.63;;;;;;;11.54;100.00;99200.39;4790586;59;1143000;-70
2023/10/25 05:45:59;;;;;;;20.60;14.30;;;;;;;11.51;100.00;99202.86;4808868;59;1147847;-75
2023/10/25 05:51:05;;;;;;;20.45;14.20;;;;;;;11.54;100.00;99203.04;4789921;60;1142857;-73
2023/10/25 05:56:12;;;;;;;19.67;15.28;;;;;;;11.52;100.00;99211.14;4743358;60;1143159;-72
2023/10/25 06:01:20;;;;;;;29.07;16.87;;;;;;;11.46;100.00;99212.24;4803462;59;1143126;-72
2023/10/25 06:06:27;;;;;;;27.67;15.50;;;;;;;11.35;100.00;99213.34;4705783;60;1143237;-74
2023/10/25 06:11:33;;;;;;;19.83;13.10;;;;;;;11.37;100.00;99211.38;4711788;60;1143083;-73
2023/10/25 06:16:39;;;;;;;26.23;15.10;;;;;;;11.43;100.00;99199.34;4729234;60;1142949;-73
2023/10/25 06:21:45;;;;;;;16.93;15.10;;;;;;;11.45;100.00;99203.50;4712918;60;1142804;-73
2023/10/25 06:26:50;;;;;;;18.87;12.67;;;;;;;11.46;100.00;99203.81;4911596;58;1142771;-75
2023/10/25 06:31:56;;;;;;;13.23;11.83;;;;;;;11.47;100.00;99202.83;4820468;60;1142881;-71
2023/10/25 06:37:02;;;;;;;23.43;14.20;;;;;;;11.54;100.00;99207.84;4933677;57;1143569;-73
2023/10/25 06:42:10;;;;;;;16.80;12.88;;;;;;;11.61;100.00;99208.03;4790661;59;1143134;-72
2023/10/25 06:47:16;;;;;;;22.80;13.68;;;;;;;11.66;100.00;99210.21;4809430;59;1143104;-74
2023/10/25 06:52:22;;;;;;;18.67;11.03;;;;;;;11.64;100.00;99207.22;4753320;59;1142954;-72
2023/10/25 06:57:27;;;;;;;16.13;10.70;;;;;;;11.56;100.00;99220.44;4732944;60;1143047;-73
2023/10/25 07:02:50;;;;;;;13.50;10.87;;;;;;;11.46;100.00;99216.22;4840344;58;1142890;-72
2023/10/25 07:07:57;;;;;;;13.80;11.70;;;;;;;11.42;100.00;99219.70;4821056;58;1142966;-69
2023/10/25 07:13:03;;;;;;;16.47;13.27;;;;;;;11.34;100.00;99214.82;4846975;57;1143129;-71
2023/10/25 07:18:09;;;;;;;20.97;12.83;;;;;;;11.31;100.00;99209.34;4910402;57;1142983;-71
2023/10/25 07:23:14;;;;;;;26.57;17.00;;;;;;;11.37;100.00;99210.55;4808751;59;1142946;-74
2023/10/25 07:28:25;;;;;;;21.83;15.70;;;;;;;11.42;100.00;99205.63;4972573;57;1143291;-72
2023/10/25 07:33:28;;;;;;;30.23;14.80;;;;;;;11.42;100.00;99209.59;4934623;57;1143115;-74
2023/10/25 07:38:34;;;;;;;14.63;12.30;;;;;;;11.47;100.00;99218.71;4826849;59;1142857;-73
2023/10/25 07:43:39;;;;;;;13.60;11.37;;;;;;;11.47;100.00;99224.00;4710437;60;1142869;-73
2023/10/25 07:48:45;;;;;;;19.10;13.13;;;;;;;11.48;100.00;99217.73;4852430;58;1142893;-75
2023/10/25 07:53:51;;;;;;;21.20;13.53;;;;;;;11.48;100.00;99223.02;4886388;59;1143009;-73
2023/10/25 07:58:57;;;;;;;18.53;12.63;;;;;;;11.51;100.00;99223.20;4866511;59;1142570;-75
2023/10/25 08:04:03;;;;;;;20.10;13.13;;;;;;;11.49;100.00;99223.85;4866643;59;1143081;-72
2023/10/25 08:09:09;;;;;;;14.70;12.10;;;;;;;11.49;100.00;99224.69;4867561;59;1142547;-75
2023/10/25 08:14:14;;;;;;;16.97;12.05;;;;;;;11.45;100.00;99219.39;4908397;58;1142669;-74
2023/10/25 08:19:20;;;;;;;13.30;10.87;;;;;;;11.54;100.00;99230.84;4789899;59;1143181;-71
2023/10/25 08:24:25;;;;;;;12.93;10.20;;;;;;;11.66;100.00;99230.08;4975150;56;1143179;-72
2023/10/25 08:29:31;;;;;;;14.67;11.17;;;;;;;11.59;100.00;99231.22;4954633;57;1143234;-73
2023/10/25 08:34:36;;;;;;;12.90;10.33;;;;;;;11.49;100.00;99233.95;4788971;59;1143163;-75
2023/10/25 08:39:42;;;;;;;13.07;10.40;;;;;;;11.45;100.00;99237.92;4911612;58;1167331;-72
2023/10/25 08:44:48;;;;;;;15.57;11.03;;;;;;;11.40;100.00;99247.30;4931038;58;1143074;-73
2023/10/25 08:49:54;;;;;;;19.20;12.77;;;;;;;11.34;100.00;99250.06;4982740;58;1254187;-74
2023/10/25 08:55:01;;;;;;;19.07;12.90;;;;;;;11.32;100.00;99257.33;4984468;57;1249888;-72
2023/10/25 09:00:07;;;;;;;13.23;10.53;;;;;;;11.27;100.00;99259.63;4831697;58;1260816;-72
2023/10/25 09:05:13;;;;;;;17.23;11.53;;;;;;;11.24;100.00;99255.47;4722046;61;1243998;-70
2023/10/25 09:10:19;;;;;;;13.13;10.60;;;;;;;11.24;100.00;99260.76;4858873;58;1254822;-72
2023/10/25 09:15:31;;;;;;;14.30;11.70;;;;;;;11.25;100.00;99265.07;4886050;57;1254550;-71
2023/10/25 09:20:37;;;;;;;14.50;10.87;;;;;;;11.21;100.00;99258.41;4816010;58;1248378;-74
2023/10/25 09:25:44;;;;;;;16.90;12.80;;;;;;;11.15;100.00;99256.37;4796122;58;1259865;-72
2023/10/25 09:30:49;;;;;;;24.87;14.37;;;;;;;11.16;100.00;99257.20;4787049;60;1255773;-73
2023/10/25 09:35:56;;;;;;;14.17;10.57;;;;;;;11.22;100.00;99256.59;4925706;58;1258992;-73
2023/10/25 09:41:04;;;;;;;16.70;13.37;;;;;;;11.22;100.00;99253.46;4905116;58;1208709;-71
2023/10/25 09:46:13;;;;;;;21.60;15.97;;;;;;;11.22;100.00;99251.30;4831842;59;1143263;-71
2023/10/25 09:51:26;;;;;;;23.15;12.85;;;;;;;11.24;100.00;99248.84;4990491;57;1142934;-74
2023/10/25 09:56:31;;;;;;;17.83;11.90;;;;;;;11.37;100.00;99226.43;5007759;57;1142929;-74
2023/10/25 10:01:38;;;;;;;16.83;9.67;;;;;;;11.46;100.00;99223.66;4990648;57;1179797;-74
2023/10/25 10:06:51;;;;;;;12.07;9.40;;;;;;;11.55;100.00;99230.69;4994494;57;1140917;-71
2023/10/25 10:12:01;;;;;;;13.80;9.98;;;;;;;11.48;100.00;99232.78;5003562;57;1140709;-74
2023/10/25 10:17:21;;;;;;;17.97;12.27;;;;;;;11.44;100.00;99232.78;4977088;56;1249099;-72
2023/10/25 10:22:23;;;;;;;14.93;11.17;;;;;;;11.40;100.00;99223.48;4941848;57;1142967;-73
2023/10/25 10:27:51;;;;;;;15.70;10.73;;;;;;;11.35;100.00;99227.91;4924216;58;1144058;-73
2023/10/25 10:32:58;;;;;;;;;;;;;;;11.26;100.00;99228.84;4914074;58;1229116;-72
2023/10/25 10:38:03;;;;;;;23.43;13.37;;;;;;;11.23;100.00;99223.86;4936224;58;976480;-72
2023/10/25 10:43:09;;;;;;;22.50;13.83;;;;;;;11.19;100.00;99238.37;4791446;58;1141109;-73
2023/10/25 10:48:22;;;;;;;12.60;10.60;;;;;;;11.15;100.00;99241.02;4802619;59;1143803;-71
2023/10/25 10:53:27;;;;;;;;;;;;;;;11.12;100.00;99236.85;4793378;60;1143035;-74
2023/10/25 10:58:32;;;;;;;15.37;12.07;;;;;;;11.06;100.00;99234.81;4804603;59;976255;-71
2023/10/25 11:03:42;;;;;;;15.20;10.80;;;;;;;11.05;100.00;99234.95;4938529;57;1140702;-72
2023/10/25 11:08:47;;;;;;;21.73;12.60;;;;;;;11.05;100.00;99230.50;4906476;57;1143048;-73
2023/10/25 11:13:54;;;;;;;25.03;11.87;;;;;;;11.05;100.00;99230.50;4910808;57;1143205;-74
2023/10/25 11:19:11;;;;;;;16.20;12.60;;;;;;;11.02;100.00;99230.80;4810239;60;1143249;-71
2023/10/25 11:24:17;;;;;;;21.45;16.32;;;;;;;11.02;100.00;99224.67;4915288;58;1143046;-74
2023/10/25 11:29:24;;;;;;;18.57;13.30;;;;;;;11.02;100.00;99220.22;4793735;59;1143950;-73
2023/10/25 11:34:34;;;;;;;16.53;13.93;;;;;;;11.06;100.00;99220.75;4810438;59;1142847;-73
2023/10/25 11:40:00;;;;;;;19.90;14.40;;;;;;;11.08;100.00;99218.78;4790662;60;1143090;-74
2023/10/25 11:45:07;;;;;;;22.02;15.10;;;;;;;11.08;100.00;99214.33;4911036;57;1142763;-72
2023/10/25 11:50:13;;;;;;;23.12;15.78;;;;;;;11.12;100.00;99218.33;4966631;57;1142791;-70
2023/10/25 11:55:19;;;;;;;23.75;15.68;;;;;;;11.15;100.00;99210.06;5017929;57;1143453;-73
2023/10/25 12:00:25;;;;;;;32.97;19.77;;;;;;;11.21;100.00;99220.53;4988900;58;1143175;-72
2023/10/25 12:05:31;;;;;;;34.93;22.90;;;;;;;11.21;100.00;99214.75;4956438;56;1143247;-72
2023/10/25 12:10:36;;;;;;;25.17;16.80;;;;;;;11.20;100.00;99211.76;4807069;59;1143148;-75
2023/10/25 12:15:42;;;;;;;17.57;12.27;;;;;;;11.25;100.00;99208.66;4908212;58;1143290;-73
2023/10/25 12:20:48;;;;;;;23.67;16.40;;;;;;;11.27;100.00;99209.34;4790139;59;1143148;-71
2023/10/25 12:25:53;;;;;;;22.93;15.97;;;;;;;11.32;100.00;99204.88;4936775;58;1143115;-74
2023/10/25 12:30:59;;;;;;;23.67;14.40;;;;;;;11.33;100.00;99194.14;4854627;58;1143195;-71
2023/10/25 12:36:05;;;;;;;17.90;12.47;;;;;;;11.42;100.00;99187.92;4711840;61;1142873;-72
2023/10/25 12:41:11;;;;;;;16.14;13.66;;;;;;;11.44;100.00;99182.47;4856467;57;1143739;-72
2023/10/25 12:46:17;;;;;;;20.10;13.58;;;;;;;11.47;100.00;99196.20;4821846;58;1142925;-74
2023/10/25 12:51:22;;;;;;;17.65;13.45;;;;;;;11.42;100.00;99190.57;4799668;60;1143618;-71
2023/10/25 12:56:29;;;;;;;20.03;13.77;;;;;;;11.44;100.00;99193.89;4755754;59;1142993;-73
2023/10/25 13:01:35;;;;;;;20.70;13.73;;;;;;;11.45;100.00;99193.41;4778879;60;1142945;-72
2023/10/25 13:06:40;;;;;;;24.35;15.95;;;;;;;11.47;100.00;99188.75;4868028;58;1142926;-71
2023/10/25 13:11:46;;;;;;;89.00;67.93;;;;;;;11.54;100.00;99186.66;4726044;60;1142845;-73
2023/10/25 13:16:52;;;;;;;29.03;22.93;;;;;;;11.58;100.00;99187.19;4734884;59;1143195;-71
2023/10/25 13:21:58;;;;;;;28.57;21.00;;;;;;;11.58;100.00;99187.19;4733909;59;1143126;-71
2023/10/25 13:27:03;;;;;;;23.20;15.87;;;;;;;11.57;100.00;99192.14;4906449;57;1143041;-72
2023/10/25 13:32:09;;;;;;;31.57;19.02;;;;;;;11.55;100.00;99180.38;4872899;58;1143007;-73
2023/10/25 13:37:15;;;;;;;24.30;15.83;;;;;;;11.57;100.00;99177.08;4885734;59;1143026;-74
2023/10/25 13:42:20;;;;;;;21.65;14.58;;;;;;;11.59;100.00;99169.81;4872632;58;1143108;-74
2023/10/25 13:47:26;;;;;;;24.27;14.37;;;;;;;11.58;100.00;99177.42;4905654;58;1142995;-71
2023/10/25 13:52:32;;;;;;;19.23;13.57;;;;;;;11.56;100.00;99186.02;4964278;56;1143110;-72
2023/10/25 13:57:37;;;;;;;22.40;13.38;;;;;;;11.53;100.00;99188.97;4869236;59;1143051;-72
2023/10/25 14:02:43;;;;;;;26.00;17.43;;;;;;;11.53;100.00;99183.67;4801528;59;1143227;-74
2023/10/25 14:07:48;;;;;;;28.80;16.90;;;;;;;11.54;100.00;99180.04;4800105;59;1143045;-71
2023/10/25 14:12:54;;;;;;;30.87;18.50;;;;;;;11.54;100.00;99175.23;4799001;58;1143413;-73
2023/10/25 14:18:00;;;;;;;24.93;16.67;;;;;;;11.57;100.00;99176.25;4916970;57;1143109;-74
2023/10/25 14:23:09;;;;;;;27.67;18.27;;;;;;;11.57;100.00;99169.14;4906627;57;1142936;-70
2023/10/25 14:28:14;;;;;;;19.90;14.43;;;;;;;11.57;100.00;99165.17;4931852;57;1143309;-73
2023/10/25 14:33:19;;;;;;;22.32;12.90;;;;;;;11.58;100.00;99171.30;4918926;57;1143161;-70
2023/10/25 14:38:25;;;;;;;20.20;12.67;;;;;;;11.56;100.00;99164.83;4792431;59;1142933;-72
2023/10/25 14:43:30;;;;;;;21.33;14.27;;;;;;;11.51;100.00;99159.17;4747420;60;1143043;-73
2023/10/25 14:48:36;;;;;;;22.73;14.13;;;;;;;11.46;100.00;99153.51;4900605;56;1143077;-71
2023/10/25 14:53:42;;;;;;;18.47;13.17;;;;;;;11.47;100.00;99155.66;4904031;56;1142860;-72
2023/10/25 14:58:47;;;;;;;23.50;13.33;;;;;;;11.47;100.00;99156.98;4919569;57;1143141;-73
2023/10/25 15:03:54;;;;;;;23.63;14.20;;;;;;;11.45;100.00;99151.88;4906937;57;1143214;-73
2023/10/25 15:09:01;;;;;;;20.17;13.10;;;;;;;11.43;100.00;99151.20;4791053;59;1143143;-71
2023/10/25 15:14:07;;;;;;;21.30;14.07;;;;;;;11.46;100.00;99144.23;4791559;60;1142979;-73
2023/10/25 15:19:13;;;;;;;33.80;22.50;;;;;;;11.48;100.00;99143.59;4812242;60;1142880;-71
2023/10/25 15:24:18;;;;;;;104.78;70.32;;;;;;;11.52;100.00;99134.84;4792380;60;1142957;-70
2023/10/25 15:29:24;;;;;;;193.73;121.57;;;;;;;11.57;100.00;99129.42;4789207;60;1144945;-72
2023/10/25 15:34:30;;;;;;;67.87;45.43;;;;;;;11.61;100.00;99134.71;4813981;59;1147240;-70
2023/10/25 15:39:36;;;;;;;56.87;36.17;;;;;;;11.63;100.00;99126.61;4827726;58;1142946;-72
2023/10/25 15:44:42;;;;;;;24.07;16.87;;;;;;;11.69;100.00;99122.02;4906635;57;1144039;-73
2023/10/25 15:49:52;;;;;;;33.20;19.77;;;;;;;11.72;100.00;99128.31;4930979;57;1142853;-72
2023/10/25 15:54:57;;;;;;;39.23;24.23;;;;;;;11.64;100.00;99115.86;4911639;57;1143145;-71
2023/10/25 16:00:03;;;;;;;41.90;24.23;;;;;;;11.62;100.00;99117.84;4906933;57;1142957;-74
2023/10/25 16:05:11;;;;;;;52.30;33.20;;;;;;;11.60;100.00;99119.84;4930063;57;1143251;-73
2023/10/25 16:10:16;;;;;;;42.50;22.82;;;;;;;11.60;100.00;99118.52;4891530;58;1142951;-72
2023/10/25 16:15:22;;;;;;;32.93;23.98;;;;;;;11.62;100.00;99111.70;4906320;57;1142798;-74
2023/10/25 16:20:27;;;;;;;37.40;25.02;;;;;;;11.66;100.00;99101.63;4908296;57;1143213;-74
2023/10/25 16:25:43;;;;;;;29.00;19.77;;;;;;;11.78;100.00;99104.34;4822167;57;1143144;-74
2023/10/25 16:30:45;;;;;;;29.30;20.03;;;;;;;11.88;100.00;99091.31;4764279;59;1143040;-72
2023/10/25 16:35:50;;;;;;;34.97;22.70;;;;;;;11.99;100.00;99087.52;4753431;60;1143358;-74
2023/10/25 16:41:04;;;;;;;117.10;66.83;;;;;;;12.05;100.00;99096.65;4774317;60;1143007;-72
2023/10/25 16:46:17;;;;;;;53.07;31.67;;;;;;;12.09;100.00;99094.81;4910982;57;1145104;-72
2023/10/25 16:51:23;;;;;;;43.33;26.17;;;;;;;12.12;100.00;99097.64;4780257;59;1143335;-71
2023/10/25 16:56:29;;;;;;;33.48;23.12;;;;;;;12.04;100.00;99093.66;4809241;60;1143092;-74
2023/10/25 17:01:34;;;;;;;34.83;22.10;;;;;;;11.97;100.00;99100.09;4916361;58;1142859;-74
2023/10/25 17:06:40;;;;;;;27.50;15.40;;;;;;;11.84;100.00;99110.33;4961753;57;1143182;-72
2023/10/25 17:11:46;;;;;;;12.07;8.00;;;;;;;11.74;100.00;99107.80;4926938;57;1143027;-73
2023/10/25 17:16:51;;;;;;;8.90;6.43;;;;;;;11.64;100.00;99100.47;4902621;58;1141091;-72
2023/10/25 17:21:57;;;;;;;10.60;5.40;;;;;;;11.51;100.00;99100.09;4792005;59;1138925;-71
2023/10/25 17:27:03;;;;;;;9.33;5.70;;;;;;;11.46;100.00;99095.75;4820140;59;1141014;-71
2023/10/25 17:32:08;;;;;;;7.60;5.93;;;;;;;11.41;100.00;99089.64;4805263;58;1138874;-71
2023/10/25 17:37:14;;;;;;;5.77;4.43;;;;;;;11.42;100.00;99085.17;4790194;60;1139868;-71
2023/10/25 17:42:20;;;;;;;6.95;4.30;;;;;;;11.44;100.00;99080.55;4927506;57;1138764;-74
2023/10/25 17:47:25;;;;;;;10.63;4.25;;;;;;;11.45;100.00;99079.07;4790200;59;1138972;-73
2023/10/25 17:52:31;;;;;;;15.75;8.20;;;;;;;11.43;100.00;99076.25;4792351;59;1140948;-72
2023/10/25 17:57:36;;;;;;;6.93;4.27;;;;;;;11.39;100.00;99077.05;4925255;57;1140921;-72
2023/10/25 18:02:42;;;;;;;8.23;5.67;;;;;;;11.39;100.00;99081.02;4760270;60;1139205;-72
2023/10/25 18:07:48;;;;;;;9.90;6.37;;;;;;;11.40;100.00;99075.23;4722948;60;1138959;-72
2023/10/25 18:12:54;;;;;;;6.00;5.40;;;;;;;11.42;100.00;99074.09;4779074;60;1139532;-71
2023/10/25 18:18:01;;;;;;;6.53;5.57;;;;;;;11.44;100.00;99067.31;4757197;59;1139015;-73
2023/10/25 18:23:07;;;;;;;7.27;4.80;;;;;;;11.45;100.00;99064.52;4883059;57;1138873;-73
2023/10/25 18:28:13;;;;;;;7.86;6.22;;;;;;;11.47;100.00;99061.67;4789051;59;1138932;-73
2023/10/25 18:33:21;;;;;;;13.85;7.10;;;;;;;11.46;100.00;99056.87;4933898;57;1138826;-71
2023/10/25 18:38:26;;;;;;;13.22;7.83;;;;;;;11.48;100.00;99060.20;4790748;59;1141072;-70
2023/10/25 18:43:32;;;;;;;13.30;8.67;;;;;;;11.45;100.00;99057.89;4903239;57;1140964;-73
2023/10/25 18:48:39;;;;;;;19.07;11.47;;;;;;;11.44;100.00;99060.20;4804711;59;1141092;-73
2023/10/25 18:53:45;;;;;;;29.23;17.70;;;;;;;11.43;100.00;99062.52;4788866;59;1143056;-71
2023/10/25 18:58:51;;;;;;;18.47;11.77;;;;;;;11.42;100.00;99062.67;4937290;57;1143675;-70
2023/10/25 19:03:57;;;;;;;17.73;11.90;;;;;;;11.38;100.00;99059.51;4852005;59;1143274;-71
2023/10/25 19:09:04;;;;;;;26.27;13.83;;;;;;;11.32;100.00;99059.30;4902941;57;1142961;-71
2023/10/25 19:14:10;;;;;;;23.83;15.70;;;;;;;11.32;100.00;99059.30;4903803;57;1142684;-71
2023/10/25 19:19:16;;;;;;;27.57;16.27;;;;;;;11.34;100.00;99055.52;4791408;58;1143262;-73
2023/10/25 19:24:22;;;;;;;27.37;17.90;;;;;;;11.34;100.00;99058.66;4923663;57;1142828;-72
2023/10/25 19:29:28;;;;;;;28.20;16.90;;;;;;;11.32;100.00;99057.48;4790673;60;1143260;-71
2023/10/25 19:34:34;;;;;;;28.65;16.23;;;;;;;11.30;100.00;99054.69;4790144;60;1143225;-73
2023/10/25 19:39:42;;;;;;;28.07;17.10;;;;;;;11.23;100.00;99055.80;4799193;60;1143004;-70
2023/10/25 19:44:48;;;;;;;26.70;15.47;;;;;;;11.15;100.00;99057.11;4890908;57;1143254;-72
2023/10/25 19:49:53;;;;;;;25.80;15.53;;;;;;;11.11;100.00;99056.59;4790960;59;1143144;-72
2023/10/25 19:55:00;;;;;;;29.73;17.97;;;;;;;11.09;100.00;99063.84;4847974;58;1142797;-78
2023/10/25 20:00:08;;;;;;;28.37;17.30;;;;;;;11.07;100.00;99057.05;4784169;58;1143412;-75
2023/10/25 20:05:16;;;;;;;29.40;18.03;;;;;;;11.08;100.00;99056.06;4910049;57;1143024;-75
2023/10/25 20:10:22;;;;;;;22.42;15.30;;;;;;;11.06;100.00;99050.09;4783229;59;1143049;-74
2023/10/25 20:15:28;;;;;;;25.97;15.10;;;;;;;11.03;100.00;99045.95;4767410;59;1142770;-75
2023/10/25 20:20:35;;;;;;;30.00;16.60;;;;;;;11.03;100.00;99047.27;4754057;60;1143285;-72
2023/10/25 20:25:51;;;;;;;22.83;15.47;;;;;;;11.08;100.00;99037.55;4912546;57;1143011;-74
2023/10/25 20:31:05;;;;;;;27.13;16.83;;;;;;;11.13;100.00;99036.59;4904418;58;1143271;-71
2023/10/25 20:36:11;;;;;;;30.40;18.23;;;;;;;11.15;100.00;99026.67;4787442;60;1142977;-76
2023/10/25 20:41:17;;;;;;;26.47;17.30;;;;;;;11.16;100.00;99019.05;4769027;60;1143090;-74
2023/10/25 20:46:23;;;;;;;28.02;17.48;;;;;;;11.16;100.00;99021.20;4809408;59;1143021;-76
2023/10/25 20:51:28;;;;;;;33.45;18.80;;;;;;;11.19;100.00;99014.77;4907830;58;1144250;-74
2023/10/25 20:56:34;;;;;;;26.93;18.07;;;;;;;11.22;100.00;99019.73;4907213;57;1143051;-75
2023/10/25 21:01:39;;;;;;;31.07;18.43;;;;;;;11.21;100.00;99026.02;4784991;59;1142959;-69
2023/10/25 21:06:45;;;;;;;26.00;18.23;;;;;;;11.20;100.00;99027.84;4910215;57;1143027;-75
2023/10/25 21:11:50;;;;;;;42.23;20.53;;;;;;;11.18;100.00;99019.22;4791009;60;1142911;-75
2023/10/25 21:16:56;;;;;;;29.82;20.27;;;;;;;11.17;100.00;99018.89;4933513;57;1142776;-73
2023/10/25 21:22:02;;;;;;;34.70;20.47;;;;;;;11.13;100.00;99015.42;4960059;57;1142794;-75
2023/10/25 21:27:07;;;;;;;28.70;20.90;;;;;;;11.06;100.00;99007.77;4990543;57;1142805;-73
2023/10/25 21:32:13;;;;;;;28.12;19.73;;;;;;;11.01;100.00;99006.91;4920443;58;1143034;-76
2023/10/25 21:37:19;;;;;;;31.83;20.20;;;;;;;10.95;100.00;98998.30;4809011;60;1143390;-73
2023/10/25 21:42:25;;;;;;;29.45;20.95;;;;;;;10.91;100.00;98991.17;4789059;59;1142968;-76
2023/10/25 21:47:30;;;;;;;24.20;17.85;;;;;;;10.92;100.00;98984.89;4713195;59;1143039;-73
2023/10/25 21:52:36;;;;;;;26.13;18.70;;;;;;;11.04;100.00;98983.28;4741010;60;1142996;-75
2023/10/25 21:57:43;;;;;;;30.03;18.43;;;;;;;11.15;100.00;98970.58;4902572;57;1142918;-75
2023/10/25 22:02:48;;;;;;;27.80;19.70;;;;;;;11.22;100.00;98966.32;4788105;60;1143610;-74
2023/10/25 22:07:54;;;;;;;28.93;19.13;;;;;;;11.21;100.00;98962.51;4931428;57;1143232;-76
2023/10/25 22:13:00;;;;;;;29.30;20.23;;;;;;;11.14;100.00;98963.66;4790150;60;1143411;-73
2023/10/25 22:18:06;;;;;;;26.87;18.90;;;;;;;11.02;100.00;98968.06;4791527;60;1142997;-74
2023/10/25 22:23:11;;;;;;;33.15;21.30;;;;;;;10.91;100.00;98967.36;4772041;58;1143205;-71
2023/10/25 22:28:17;;;;;;;31.05;18.10;;;;;;;10.79;100.00;98964.67;4684462;60;1147817;-76
2023/10/25 22:33:23;;;;;;;43.02;17.65;;;;;;;10.75;100.00;98963.81;4721985;60;1143803;-73
2023/10/25 22:38:29;;;;;;;57.40;19.80;;;;;;;10.67;100.00;98961.14;4720544;59;1143028;-72
2023/10/25 22:43:35;;;;;;;97.90;18.90;;;;;;;10.57;100.00;98951.98;4926906;57;1143003;-74